createdAt,value
2022-08-07T00:01:43.573Z,17.50
2022-08-07T00:05:34.057Z,17.50
2022-08-07T00:09:21.170Z,17.40
2022-08-07T00:13:17.434Z,17.40
2022-08-07T00:17:07.487Z,17.40
2022-08-07T00:20:51.310Z,17.40
2022-08-07T00:24:33.115Z,17.30
2022-08-07T00:28:15.601Z,17.30
2022-08-07T00:31:59.695Z,17.30
2022-08-07T00:35:43.515Z,17.30
2022-08-07T00:39:27.508Z,17.20
2022-08-07T00:44:00.921Z,17.20
2022-08-07T00:48:05.464Z,17.20
2022-08-07T00:51:16.806Z,17.20
2022-08-07T00:54:58.593Z,17.20
2022-08-07T00:58:49.578Z,17.10
2022-08-07T01:02:31.675Z,17.10
2022-08-07T01:06:13.458Z,17.00
2022-08-07T01:10:06.642Z,17.00
2022-08-07T01:13:55.961Z,17.00
2022-08-07T01:17:37.937Z,17.00
2022-08-07T01:21:25.900Z,16.90
2022-08-07T01:25:40.549Z,16.90
2022-08-07T01:29:12.225Z,16.90
2022-08-07T01:32:54.611Z,16.90
2022-08-07T01:36:40.506Z,16.90
2022-08-07T01:40:22.734Z,16.80
2022-08-07T01:44:05.877Z,16.80
2022-08-07T01:48:19.127Z,16.70
2022-08-07T01:52:01.830Z,16.70
2022-08-07T01:55:47.721Z,16.70
2022-08-07T01:59:47.406Z,16.70
2022-08-07T02:03:42.671Z,16.60
2022-08-07T02:07:44.942Z,16.60
2022-08-07T02:12:03.342Z,16.60
2022-08-07T02:15:39.460Z,16.60
2022-08-07T02:20:04.155Z,16.60
2022-08-07T02:23:23.914Z,16.50
2022-08-07T02:27:05.971Z,16.40
2022-08-07T02:30:49.193Z,16.40
2022-08-07T02:34:31.154Z,16.40
2022-08-07T02:38:14.713Z,16.40
2022-08-07T02:41:57.514Z,16.30
2022-08-07T02:46:00.556Z,16.30
2022-08-07T02:49:56.415Z,16.30
2022-08-07T02:53:41.770Z,16.30
2022-08-07T02:57:24.480Z,16.20
2022-08-07T03:01:18.879Z,16.10
2022-08-07T03:05:20.705Z,16.10
2022-08-07T03:09:07.467Z,16.00
2022-08-07T03:12:53.148Z,16.00
2022-08-07T03:16:35.725Z,15.90
2022-08-07T03:20:17.497Z,15.90
2022-08-07T03:24:20.755Z,15.80
2022-08-07T03:28:36.842Z,15.80
2022-08-07T03:32:04.341Z,15.80
2022-08-07T03:35:50.622Z,15.80
2022-08-07T03:39:59.766Z,15.80
2022-08-07T03:43:35.965Z,15.80
2022-08-07T03:47:17.884Z,15.80
2022-08-07T03:51:01.617Z,15.70
2022-08-07T03:54:54.285Z,15.70
2022-08-07T03:59:09.283Z,15.70
2022-08-07T04:02:41.386Z,15.70
2022-08-07T04:06:37.552Z,15.70
2022-08-07T04:10:20.576Z,15.70
2022-08-07T04:14:10.596Z,15.70
2022-08-07T04:18:58.071Z,15.70
2022-08-07T04:22:14.428Z,15.60
2022-08-07T04:25:59.081Z,15.60
2022-08-07T04:29:48.822Z,15.60
2022-08-07T04:33:40.809Z,15.60
2022-08-07T04:37:22.654Z,15.60
2022-08-07T04:41:06.021Z,15.60
2022-08-07T04:44:54.647Z,15.60
2022-08-07T04:48:55.681Z,15.60
2022-08-07T04:52:57.389Z,15.60
2022-08-07T04:58:10.442Z,15.60
2022-08-07T05:01:14.727Z,15.60
2022-08-07T05:05:53.930Z,15.60
2022-08-07T05:09:45.504Z,15.60
2022-08-07T05:14:51.886Z,15.60
2022-08-07T05:17:52.578Z,15.70
2022-08-07T05:22:00.667Z,15.70
2022-08-07T05:26:11.040Z,15.70
2022-08-07T05:29:51.047Z,15.60
2022-08-07T05:33:35.599Z,15.60
2022-08-07T05:37:25.150Z,15.60
2022-08-07T05:41:14.336Z,15.60
2022-08-07T05:45:14.062Z,15.60
2022-08-07T05:48:58.081Z,15.60
2022-08-07T05:52:40.766Z,15.60
2022-08-07T05:56:29.976Z,15.70
2022-08-07T06:00:16.487Z,15.70
2022-08-07T06:04:01.001Z,15.70
2022-08-07T06:08:13.406Z,15.70
2022-08-07T06:11:45.540Z,15.80
2022-08-07T06:15:38.947Z,15.80
2022-08-07T06:19:57.798Z,15.80
2022-08-07T06:24:37.936Z,15.80
2022-08-07T06:27:43.946Z,15.90
2022-08-07T06:31:49.397Z,16.00
2022-08-07T06:35:45.782Z,16.10
2022-08-07T06:40:15.907Z,16.20
2022-08-07T06:43:39.230Z,16.30
2022-08-07T06:47:21.935Z,16.40
2022-08-07T06:51:08.036Z,16.50
2022-08-07T06:55:32.466Z,16.60
2022-08-07T07:00:12.466Z,16.70
2022-08-07T07:02:57.518Z,16.80
2022-08-07T07:07:00.297Z,16.90
2022-08-07T07:10:54.730Z,17.00
2022-08-07T07:14:56.528Z,17.10
2022-08-07T07:18:47.889Z,17.20
2022-08-07T07:22:36.930Z,17.30
2022-08-07T07:26:37.119Z,17.40
2022-08-07T07:30:32.336Z,17.50
2022-08-07T07:34:22.337Z,17.60
2022-08-07T07:38:13.238Z,17.70
2022-08-07T07:42:09.051Z,17.80
2022-08-07T07:46:40.264Z,17.90
2022-08-07T07:50:35.520Z,18.00
2022-08-07T07:53:59.218Z,18.10
2022-08-07T07:57:50.388Z,18.20
2022-08-07T08:02:03.375Z,18.30
2022-08-07T08:05:42.814Z,18.40
2022-08-07T08:09:52.132Z,18.50
2022-08-07T08:13:54.729Z,18.60
2022-08-07T08:17:57.423Z,18.70
2022-08-07T08:22:03.201Z,18.80
2022-08-07T08:27:20.531Z,18.90
2022-08-07T08:30:07.834Z,19.00
2022-08-07T08:33:57.851Z,19.10
2022-08-07T08:38:01.486Z,19.20
2022-08-07T08:41:58.695Z,19.30
2022-08-07T08:46:00.848Z,19.40
2022-08-07T08:50:09.002Z,19.50
2022-08-07T08:54:02.533Z,19.60
2022-08-07T08:57:57.123Z,19.70
2022-08-07T09:01:49.536Z,19.80
2022-08-07T09:06:01.743Z,19.90
2022-08-07T09:09:44.614Z,20.00
2022-08-07T09:13:37.141Z,20.10
2022-08-07T09:17:58.479Z,20.20
2022-08-07T09:22:09.929Z,20.30
2022-08-07T09:26:08.664Z,20.40
2022-08-07T09:30:04.599Z,20.50
2022-08-07T09:34:15.926Z,20.60
2022-08-07T09:38:12.125Z,20.60
2022-08-07T09:42:16.945Z,20.70
2022-08-07T09:47:25.193Z,20.80
2022-08-07T09:50:46.263Z,20.90
2022-08-07T09:54:45.248Z,21.00
2022-08-07T09:58:56.337Z,21.20
2022-08-07T10:02:55.233Z,21.30
2022-08-07T10:06:37.954Z,21.30
2022-08-07T10:10:23.849Z,21.40
2022-08-07T10:14:15.897Z,21.50
2022-08-07T10:18:26.308Z,21.60
2022-08-07T10:22:43.481Z,21.70
2022-08-07T10:26:51.642Z,21.80
2022-08-07T10:31:26.862Z,21.90
2022-08-07T10:35:16.634Z,21.90
2022-08-07T10:39:09.423Z,22.00
2022-08-07T10:43:10.563Z,22.10
2022-08-07T10:47:00.175Z,22.20
2022-08-07T10:50:50.309Z,22.20
2022-08-07T10:54:38.661Z,22.30
2022-08-07T10:58:46.072Z,22.30
2022-08-07T11:02:35.076Z,22.40
2022-08-07T11:06:22.919Z,22.40
2022-08-07T11:10:38.038Z,22.50
2022-08-07T11:14:56.841Z,22.50
2022-08-07T11:18:39.770Z,22.60
2022-08-07T11:22:37.024Z,22.60
2022-08-07T11:26:43.402Z,22.70
2022-08-07T11:30:43.713Z,22.80
2022-08-07T11:34:32.826Z,22.90
2022-08-07T11:38:41.629Z,23.00
2022-08-07T11:42:41.454Z,23.10
2022-08-07T11:47:17.329Z,23.10
2022-08-07T11:51:40.832Z,23.20
2022-08-07T11:56:12.038Z,23.30
2022-08-07T12:00:10.296Z,23.40
2022-08-07T12:04:18.474Z,23.50
2022-08-07T12:08:25.961Z,23.50
2022-08-07T12:12:34.422Z,23.60
2022-08-07T12:16:30.160Z,23.70
2022-08-07T12:20:30.138Z,23.70
2022-08-07T12:24:37.614Z,23.80
2022-08-07T12:28:57.998Z,23.80
2022-08-07T12:32:43.914Z,23.90
2022-08-07T12:36:33.558Z,24.00
2022-08-07T12:40:46.739Z,24.00
2022-08-07T12:44:26.792Z,24.00
2022-08-07T12:48:13.249Z,24.10
2022-08-07T12:52:19.151Z,24.10
2022-08-07T12:56:12.352Z,24.20
2022-08-07T12:59:55.830Z,24.30
2022-08-07T13:04:04.926Z,24.30
2022-08-07T13:08:18.926Z,24.40
2022-08-07T13:12:22.135Z,24.50
2022-08-07T13:16:39.438Z,24.60
2022-08-07T13:20:44.569Z,24.80
2022-08-07T13:24:29.278Z,24.90
2022-08-07T13:28:18.753Z,25.00
2022-08-07T13:32:32.468Z,25.10
2022-08-07T13:36:21.379Z,25.20
2022-08-07T13:40:36.339Z,25.30
2022-08-07T13:44:27.529Z,25.40
2022-08-07T13:48:27.553Z,25.60
2022-08-07T13:52:32.147Z,25.70
2022-08-07T13:56:36.016Z,25.80
2022-08-07T14:00:26.820Z,25.90
2022-08-07T14:04:14.865Z,26.10
2022-08-07T14:07:59.952Z,26.20
2022-08-07T14:12:04.713Z,26.30
2022-08-07T14:15:56.817Z,26.50
2022-08-07T14:20:42.772Z,26.60
2022-08-07T14:24:08.765Z,26.80
2022-08-07T14:35:56.510Z,27.60
2022-08-07T14:40:16.980Z,28.20
2022-08-07T14:43:58.664Z,28.80
2022-08-07T14:47:47.054Z,29.80
2022-08-07T14:55:32.774Z,31.60
2022-08-07T15:00:04.748Z,32.60
2022-08-07T15:03:19.671Z,33.50
2022-08-07T15:07:01.737Z,34.30
2022-08-07T15:11:14.981Z,35.10
2022-08-07T15:15:09.304Z,35.80
2022-08-07T15:19:07.147Z,36.50
2022-08-07T15:26:59.522Z,38.00
2022-08-07T15:31:05.218Z,38.70
2022-08-07T15:34:56.977Z,39.30
2022-08-07T15:38:58.684Z,39.80
2022-08-07T15:42:43.863Z,40.30
2022-08-07T15:46:37.580Z,40.80
2022-08-07T15:54:24.070Z,41.80
2022-08-07T15:58:11.675Z,42.30
2022-08-07T16:02:02.923Z,42.90
2022-08-07T16:05:47.040Z,43.30
2022-08-07T16:09:51.697Z,43.70
2022-08-07T16:13:58.098Z,44.30
2022-08-07T16:18:08.322Z,44.90
2022-08-07T16:22:33.754Z,45.40
2022-08-07T16:26:34.836Z,45.90
2022-08-07T16:30:30.885Z,46.40
2022-08-07T16:34:31.450Z,46.50
2022-08-07T16:38:50.769Z,46.70
2022-08-07T16:42:51.426Z,47.10
2022-08-07T16:47:04.638Z,47.30
2022-08-07T16:51:13.483Z,47.60
2022-08-07T16:55:08.361Z,47.90
2022-08-07T16:59:15.231Z,47.90
2022-08-07T17:03:11.247Z,48.10
2022-08-07T17:07:53.830Z,48.30
2022-08-07T17:12:04.184Z,48.60
2022-08-07T17:16:12.264Z,48.90
2022-08-07T17:20:02.826Z,49.20
2022-08-07T17:24:07.951Z,49.30
2022-08-07T17:28:20.123Z,49.30
2022-08-07T17:32:14.056Z,49.40
2022-08-07T17:36:26.053Z,49.40
2022-08-07T17:40:30.462Z,49.40
2022-08-07T17:44:33.804Z,49.30
2022-08-07T17:48:33.391Z,48.80
2022-08-07T17:52:39.748Z,47.50
2022-08-07T17:56:28.750Z,45.80
2022-08-07T18:00:14.622Z,43.90
2022-08-07T18:04:35.117Z,42.10
2022-08-07T18:08:31.120Z,40.20
2022-08-07T18:12:28.195Z,38.60
2022-08-07T18:16:32.943Z,37.30
2022-08-07T18:21:06.942Z,36.10
2022-08-07T18:24:34.186Z,35.00
2022-08-07T18:28:34.489Z,34.00
2022-08-07T18:32:46.355Z,33.20
2022-08-07T18:36:57.639Z,32.30
2022-08-07T18:41:00.518Z,31.50
2022-08-07T18:45:44.364Z,30.90
2022-08-07T18:50:29.844Z,30.30
2022-08-07T18:53:17.156Z,29.80
2022-08-07T18:57:30.283Z,29.40
2022-08-07T19:02:17.961Z,29.00
2022-08-07T19:06:16.373Z,28.60
2022-08-07T19:10:00.745Z,28.20
2022-08-07T19:13:45.664Z,27.80
2022-08-07T19:18:02.495Z,27.50
2022-08-07T19:22:17.623Z,27.20
2022-08-07T19:26:24.122Z,26.90
2022-08-07T19:31:06.249Z,26.60
2022-08-07T19:34:12.554Z,26.30
2022-08-07T19:37:59.506Z,26.00
2022-08-07T19:42:08.069Z,25.70
2022-08-07T19:46:08.008Z,25.50
2022-08-07T19:49:57.436Z,25.30
2022-08-07T19:54:31.045Z,25.10
2022-08-07T19:58:01.762Z,24.80
2022-08-07T20:01:55.833Z,24.60
2022-08-07T20:05:59.886Z,24.40
2022-08-07T20:10:34.278Z,24.20
2022-08-07T20:13:47.698Z,24.10
2022-08-07T20:17:32.746Z,23.90
2022-08-07T20:21:22.562Z,23.70
2022-08-07T20:25:12.784Z,23.60
2022-08-07T20:29:10.743Z,23.40
2022-08-07T20:33:09.139Z,23.30
2022-08-07T20:37:08.673Z,23.20
2022-08-07T20:40:53.666Z,23.10
2022-08-07T20:44:37.788Z,23.00
2022-08-07T20:48:28.564Z,22.90
2022-08-07T20:52:21.177Z,22.80
2022-08-07T20:56:11.990Z,22.70
2022-08-07T21:00:06.282Z,22.60
2022-08-07T21:04:18.605Z,22.50
2022-08-07T21:07:58.651Z,22.40
2022-08-07T21:11:50.100Z,22.40
2022-08-07T21:15:47.720Z,22.30
2022-08-07T21:19:50.678Z,22.20
2022-08-07T21:23:55.577Z,22.10
2022-08-07T21:27:47.165Z,22.00
2022-08-07T21:32:41.895Z,21.90
2022-08-07T21:36:05.226Z,21.90
2022-08-07T21:39:54.826Z,21.80
2022-08-07T21:43:56.172Z,21.70
2022-08-07T21:47:50.399Z,21.60
2022-08-07T21:51:34.056Z,21.50
2022-08-07T21:55:42.953Z,21.50
2022-08-07T22:00:04.647Z,21.30
2022-08-07T22:03:51.909Z,21.30
2022-08-07T22:07:59.597Z,21.20
2022-08-07T22:12:05.099Z,21.10
2022-08-07T22:16:44.519Z,21.00
2022-08-07T22:20:34.855Z,20.90
2022-08-07T22:24:21.499Z,20.80
2022-08-07T22:28:31.779Z,20.80
2022-08-07T22:32:20.508Z,20.70
2022-08-07T22:36:06.705Z,20.60
2022-08-07T22:40:20.409Z,20.60
2022-08-07T22:44:04.792Z,20.50
2022-08-07T22:48:31.241Z,20.40
2022-08-07T22:52:37.285Z,20.30
2022-08-07T22:56:35.700Z,20.20
2022-08-07T23:00:28.411Z,20.20
2022-08-07T23:04:56.937Z,20.10
2022-08-07T23:10:04.823Z,20.10
2022-08-07T23:14:14.972Z,20.00
2022-08-07T23:18:29.026Z,20.00
2022-08-07T23:22:27.158Z,19.90
2022-08-07T23:26:19.092Z,19.90
2022-08-07T23:30:39.500Z,19.80
2022-08-07T23:34:41.418Z,19.70
2022-08-07T23:38:36.765Z,19.70
2022-08-07T23:42:53.415Z,19.60
2022-08-07T23:47:06.414Z,19.50
2022-08-07T23:50:54.456Z,19.50
2022-08-07T23:54:57.946Z,19.40
2022-08-07T23:59:10.906Z,19.40
